Grizzly Air Cargo 5139


PANC
Ted Stevens Anchorage International Airport
Anchorage, Alaska, US
CYZF
Yellowknife Airport
Yellowknife, , CA

Activity Log

Date Flight Route Aircraft Duration
10/19/2019 GRZ539 TED J511 GKN J124 ORT NCA17 YZF B738 2h 52m
09/09/2019 GRZ542 TED J511 GKN J124 ORT NCA17 YZF B722 2h 18m
09/06/2019 GRZ539 TED J511 GKN J124 ORT NCA17 YZF B738 2h 27m
09/01/2019 GRZ542 TED J511 GKN J124 ORT NCA17 YZF B722 2h 10m
08/31/2019 GRZ542 TED J511 GKN J124 ORT NCA17 YZF B722 2h 10m
08/19/2019 GRZ542 TED J511 GKN J124 ORT NCA17 YZF B722 2h 25m
06/29/2019 GRZ541 TED J511 GKN J124 ORT NCA17 YZF B722 2h 25m
06/06/2019 GRZ541 TED J511 GKN J124 ORT NCA17 YZF B722 2h 35m

Route Details

Aircraft Information
Primary: Boeing 737-800BCF
Backup: Boeing 727-200F
Route Data
Distance: 1002nm
Sched. Duration: 2h 50m
Avg. Duration: 2h 25m (-25m)
Times Flown: 8
Recm'd Route: TED J511 GKN J124 ORT NCA17 YZF
Planned Altitude: 35,000ft
Origin Wx: PANC 290253Z 24008KT 10SM FEW060 SCT090 BKN130 BKN200 22/04 A2995 RMK AO2 SLP141 VIRGA N-E T02170039 56013
Dest. Wx: CYZF 290300Z 05003KT 010V110 15SM FEW068 09/M05 A3033 RMK AC1 AC TR SLP286
Notes:

Financial History
Total Freight: 243,277lbs
Average Load: 30,410lbs/flt
Fuel Used: 151,775lbs
Avg. Fuel Used: 18,972lbs/flt
Fuel Expense: $188,201
Avg. Fuel Expense: $23,525
Avg. Fuel Cost: $1.24/lbs
Total Gross Income: $671,445
Pilot Pay: $1,832
Total Expenses: $72,932
Total Revenue: $405,617
Average Revenue: $83,930.56